This is the latest recevied weather packets stored in our database for station/object F1JRN-13. If no packets are shown the sender has not sent any weather packets the latest 10 day(s).
| Time | Temp. | Humidity | Pressure | Rain* | Wind** | Luminosity | Snow |
|---|---|---|---|---|---|---|---|
| 1777894069 | 21.11° C | 82% | 1013.4 hPa | 0 mm | - | - | - |
| 1777893529 | 20.56° C | 85% | 1013.5 hPa | 0 mm | - | - | - |
| 1777891909 | 17.78° C | 88% | 1013.7 hPa | 0 mm | - | - | - |
| 1777884889 | 14.44° C | 97% | 1013.8 hPa | 0 mm | - | - | - |
| 1777880569 | 14.44° C | 97% | 1013.7 hPa | 0 mm | - | - | - |
| 1777878949 | 13.33° C | 96% | 1013.6 hPa | 0 mm | - | - | - |
| 1777875540 | 12.78° C | 96% | 1013.4 hPa | 0.25 mm | - | - | - |
| 1777875001 | 12.78° C | 96% | 1013.4 hPa | 0.25 mm | - | - | - |
| 1777873381 | 12.22° C | 98% | 1013.4 hPa | 1.27 mm | - | - | - |
| 1777871221 | 12.22° C | 98% | 1013 hPa | 1.27 mm | - | - | - |
| 1777831809 | 14.44° C | 70% | 1011.7 hPa | 0 mm | - | - | - |
| 1777827488 | 15° C | 67% | 1010.9 hPa | 0 mm | - | - | - |
| 1777825328 | 16.67° C | 71% | 1011.6 hPa | 0 mm | - | - | - |
| 1777821548 | 20° C | 62% | 1011.5 hPa | 0 mm | - | - | - |
| 1777818309 | 21.67° C | 61% | 1011.8 hPa | 0 mm | - | - | - |
| 1777813449 | 22.22° C | 56% | 1012.8 hPa | 0 mm | - | - | - |
| 1777811288 | 22.78° C | 58% | 1013.1 hPa | 0 mm | - | - | - |
| 1777809128 | 22.22° C | 62% | 1013.4 hPa | 0 mm | - | - | - |
| 1777808588 | 22.78° C | 61% | 1013.5 hPa | 0 mm | - | - | - |
| 1777804808 | 21.11° C | 69% | 1013.8 hPa | 0 mm | - | - | - |
| 1777801569 | 18.33° C | 75% | 1014.2 hPa | 0 mm | - | - | - |
| 1777801028 | 18.33° C | 76% | 1014.3 hPa | 0 mm | - | - | - |
| 1777790894 | 13.33° C | 92% | 1013.9 hPa | 0 mm | - | - | - |
| 1777788353 | 13.33° C | 92% | 1006 hPa | 0 mm | - | - | - |
| 1777785113 | 13.33° C | 92% | 1006 hPa | 0 mm | - | - | - |
* Rain latest hour (hover to see other rain measurements)
** Current wind speed in m/s (hover to see current wind gust speed)